sensor_id;sensor_type;location;lat;lon;timestamp;temperature;humidity
14283;DHT22;7225;59.282;18.344;2022-08-19T00:00:12;20.90;99.90
14283;DHT22;7225;59.282;18.344;2022-08-19T00:02:42;20.90;99.90
14283;DHT22;7225;59.282;18.344;2022-08-19T00:05:18;20.90;99.90
14283;DHT22;7225;59.282;18.344;2022-08-19T00:07:47;20.90;99.90
14283;DHT22;7225;59.282;18.344;2022-08-19T00:10:17;20.90;99.90
14283;DHT22;7225;59.282;18.344;2022-08-19T00:12:46;20.80;99.90
14283;DHT22;7225;59.282;18.344;2022-08-19T00:15:18;20.90;99.90
14283;DHT22;7225;59.282;18.344;2022-08-19T00:17:48;20.90;99.90
14283;DHT22;7225;59.282;18.344;2022-08-19T00:20:19;20.90;99.90
14283;DHT22;7225;59.282;18.344;2022-08-19T00:22:47;20.90;99.90
14283;DHT22;7225;59.282;18.344;2022-08-19T00:25:16;20.90;99.90
14283;DHT22;7225;59.282;18.344;2022-08-19T00:27:43;20.90;99.90
14283;DHT22;7225;59.282;18.344;2022-08-19T00:30:12;20.90;99.90
14283;DHT22;7225;59.282;18.344;2022-08-19T00:32:41;20.90;99.90
14283;DHT22;7225;59.282;18.344;2022-08-19T00:35:08;21.00;99.90
14283;DHT22;7225;59.282;18.344;2022-08-19T00:37:37;21.00;99.90
14283;DHT22;7225;59.282;18.344;2022-08-19T00:40:06;21.10;99.90
14283;DHT22;7225;59.282;18.344;2022-08-19T00:42:35;21.00;99.90
14283;DHT22;7225;59.282;18.344;2022-08-19T00:45:11;21.00;99.90
14283;DHT22;7225;59.282;18.344;2022-08-19T00:47:39;21.00;99.90
14283;DHT22;7225;59.282;18.344;2022-08-19T00:50:09;21.00;99.90
14283;DHT22;7225;59.282;18.344;2022-08-19T00:52:42;21.00;99.90
14283;DHT22;7225;59.282;18.344;2022-08-19T00:55:21;21.10;99.90
14283;DHT22;7225;59.282;18.344;2022-08-19T00:57:56;21.00;99.90
14283;DHT22;7225;59.282;18.344;2022-08-19T01:00:28;21.10;99.90
14283;DHT22;7225;59.282;18.344;2022-08-19T01:02:57;21.10;99.90
14283;DHT22;7225;59.282;18.344;2022-08-19T01:05:27;21.10;99.90
14283;DHT22;7225;59.282;18.344;2022-08-19T01:07:59;21.10;99.90
14283;DHT22;7225;59.282;18.344;2022-08-19T01:10:32;21.10;99.90
14283;DHT22;7225;59.282;18.344;2022-08-19T01:13:04;21.00;99.90
14283;DHT22;7225;59.282;18.344;2022-08-19T01:15:38;21.00;99.90
14283;DHT22;7225;59.282;18.344;2022-08-19T01:18:12;21.00;99.90
14283;DHT22;7225;59.282;18.344;2022-08-19T01:20:41;21.10;99.90
14283;DHT22;7225;59.282;18.344;2022-08-19T01:23:11;21.10;99.90
14283;DHT22;7225;59.282;18.344;2022-08-19T01:25:45;21.10;99.90
14283;DHT22;7225;59.282;18.344;2022-08-19T01:28:25;21.10;99.90
14283;DHT22;7225;59.282;18.344;2022-08-19T01:31:08;21.10;99.90
14283;DHT22;7225;59.282;18.344;2022-08-19T01:33:55;21.10;99.90
14283;DHT22;7225;59.282;18.344;2022-08-19T01:36:40;21.20;99.90
14283;DHT22;7225;59.282;18.344;2022-08-19T01:39:13;21.10;99.90
14283;DHT22;7225;59.282;18.344;2022-08-19T01:41:42;21.10;99.90
14283;DHT22;7225;59.282;18.344;2022-08-19T01:44:11;21.10;99.90
14283;DHT22;7225;59.282;18.344;2022-08-19T01:46:47;21.10;99.90
14283;DHT22;7225;59.282;18.344;2022-08-19T01:49:19;21.10;99.90
14283;DHT22;7225;59.282;18.344;2022-08-19T01:51:49;21.10;99.90
14283;DHT22;7225;59.282;18.344;2022-08-19T01:54:19;21.10;99.90
14283;DHT22;7225;59.282;18.344;2022-08-19T01:57:03;21.10;99.90
14283;DHT22;7225;59.282;18.344;2022-08-19T01:59:33;21.10;99.90
14283;DHT22;7225;59.282;18.344;2022-08-19T02:02:05;21.10;99.90
14283;DHT22;7225;59.282;18.344;2022-08-19T02:04:36;21.10;99.90
14283;DHT22;7225;59.282;18.344;2022-08-19T02:07:06;21.10;99.90
14283;DHT22;7225;59.282;18.344;2022-08-19T02:09:36;21.10;99.90
14283;DHT22;7225;59.282;18.344;2022-08-19T02:12:06;21.20;99.90
14283;DHT22;7225;59.282;18.344;2022-08-19T02:14:36;21.20;99.90
14283;DHT22;7225;59.282;18.344;2022-08-19T02:17:05;21.10;99.90
14283;DHT22;7225;59.282;18.344;2022-08-19T02:19:34;21.10;99.90
14283;DHT22;7225;59.282;18.344;2022-08-19T02:22:06;21.10;99.90
14283;DHT22;7225;59.282;18.344;2022-08-19T02:24:34;21.10;99.90
14283;DHT22;7225;59.282;18.344;2022-08-19T02:27:02;21.10;99.90
14283;DHT22;7225;59.282;18.344;2022-08-19T02:29:29;21.10;99.90
14283;DHT22;7225;59.282;18.344;2022-08-19T02:31:58;21.10;99.90
14283;DHT22;7225;59.282;18.344;2022-08-19T02:34:25;21.10;99.90
14283;DHT22;7225;59.282;18.344;2022-08-19T02:36:53;21.10;99.90
14283;DHT22;7225;59.282;18.344;2022-08-19T02:39:21;21.20;99.90
14283;DHT22;7225;59.282;18.344;2022-08-19T02:41:51;21.10;99.90
14283;DHT22;7225;59.282;18.344;2022-08-19T02:44:22;21.10;99.90
14283;DHT22;7225;59.282;18.344;2022-08-19T02:46:57;21.20;99.90
14283;DHT22;7225;59.282;18.344;2022-08-19T02:49:25;21.20;99.90
14283;DHT22;7225;59.282;18.344;2022-08-19T02:51:53;21.10;99.90
14283;DHT22;7225;59.282;18.344;2022-08-19T02:54:23;21.10;99.90
14283;DHT22;7225;59.282;18.344;2022-08-19T02:56:51;21.10;99.90
14283;DHT22;7225;59.282;18.344;2022-08-19T02:59:19;21.10;99.90
14283;DHT22;7225;59.282;18.344;2022-08-19T03:01:50;21.20;99.90
14283;DHT22;7225;59.282;18.344;2022-08-19T03:04:19;21.20;99.90
14283;DHT22;7225;59.282;18.344;2022-08-19T03:06:47;21.10;99.90
14283;DHT22;7225;59.282;18.344;2022-08-19T03:09:16;21.10;99.90
14283;DHT22;7225;59.282;18.344;2022-08-19T03:11:44;21.10;99.90
14283;DHT22;7225;59.282;18.344;2022-08-19T03:14:12;21.10;99.90
14283;DHT22;7225;59.282;18.344;2022-08-19T03:16:43;21.20;99.90
14283;DHT22;7225;59.282;18.344;2022-08-19T03:19:12;21.10;99.90
14283;DHT22;7225;59.282;18.344;2022-08-19T03:21:43;21.20;99.90
14283;DHT22;7225;59.282;18.344;2022-08-19T03:24:13;21.20;99.90
14283;DHT22;7225;59.282;18.344;2022-08-19T03:26:44;21.10;99.90
14283;DHT22;7225;59.282;18.344;2022-08-19T03:29:14;21.10;99.90
14283;DHT22;7225;59.282;18.344;2022-08-19T03:31:59;21.10;99.90
14283;DHT22;7225;59.282;18.344;2022-08-19T03:34:30;21.20;99.90
14283;DHT22;7225;59.282;18.344;2022-08-19T03:37:07;21.10;99.90
14283;DHT22;7225;59.282;18.344;2022-08-19T03:39:39;21.10;99.90
14283;DHT22;7225;59.282;18.344;2022-08-19T03:42:08;21.10;99.90
14283;DHT22;7225;59.282;18.344;2022-08-19T03:44:56;21.10;99.90
14283;DHT22;7225;59.282;18.344;2022-08-19T03:47:26;21.10;99.90
14283;DHT22;7225;59.282;18.344;2022-08-19T03:49:54;21.10;99.90
14283;DHT22;7225;59.282;18.344;2022-08-19T03:52:22;21.10;99.90
14283;DHT22;7225;59.282;18.344;2022-08-19T03:54:51;21.10;99.90
14283;DHT22;7225;59.282;18.344;2022-08-19T03:57:18;21.10;99.90
14283;DHT22;7225;59.282;18.344;2022-08-19T03:59:45;21.10;99.90
14283;DHT22;7225;59.282;18.344;2022-08-19T04:02:13;21.00;99.90
14283;DHT22;7225;59.282;18.344;2022-08-19T04:04:43;21.10;99.90
14283;DHT22;7225;59.282;18.344;2022-08-19T04:07:14;21.00;99.90
14283;DHT22;7225;59.282;18.344;2022-08-19T04:09:46;21.10;99.90
14283;DHT22;7225;59.282;18.344;2022-08-19T04:12:14;21.10;99.90
14283;DHT22;7225;59.282;18.344;2022-08-19T04:14:42;21.10;99.90
14283;DHT22;7225;59.282;18.344;2022-08-19T04:17:09;21.10;99.90
14283;DHT22;7225;59.282;18.344;2022-08-19T04:19:38;21.10;99.90
14283;DHT22;7225;59.282;18.344;2022-08-19T04:22:06;21.10;99.90
14283;DHT22;7225;59.282;18.344;2022-08-19T04:24:34;21.10;99.90
14283;DHT22;7225;59.282;18.344;2022-08-19T04:27:03;21.10;99.90
14283;DHT22;7225;59.282;18.344;2022-08-19T04:29:34;21.20;99.90
14283;DHT22;7225;59.282;18.344;2022-08-19T04:32:03;21.10;99.90
14283;DHT22;7225;59.282;18.344;2022-08-19T04:34:37;21.20;99.90
14283;DHT22;7225;59.282;18.344;2022-08-19T04:37:27;21.10;99.90
14283;DHT22;7225;59.282;18.344;2022-08-19T04:40:05;21.20;99.90
14283;DHT22;7225;59.282;18.344;2022-08-19T04:42:53;21.10;99.90
14283;DHT22;7225;59.282;18.344;2022-08-19T04:45:23;21.20;99.90
14283;DHT22;7225;59.282;18.344;2022-08-19T04:47:54;21.20;99.90
14283;DHT22;7225;59.282;18.344;2022-08-19T04:50:44;21.20;99.90
14283;DHT22;7225;59.282;18.344;2022-08-19T04:53:12;21.30;99.90
14283;DHT22;7225;59.282;18.344;2022-08-19T04:55:41;21.30;99.90
14283;DHT22;7225;59.282;18.344;2022-08-19T04:58:10;21.30;99.90
14283;DHT22;7225;59.282;18.344;2022-08-19T05:00:39;21.30;99.90
14283;DHT22;7225;59.282;18.344;2022-08-19T05:03:07;21.40;99.90
14283;DHT22;7225;59.282;18.344;2022-08-19T05:05:45;21.40;99.90
14283;DHT22;7225;59.282;18.344;2022-08-19T05:08:15;21.40;99.90
14283;DHT22;7225;59.282;18.344;2022-08-19T05:10:58;21.40;99.90
14283;DHT22;7225;59.282;18.344;2022-08-19T05:13:26;21.40;99.90
14283;DHT22;7225;59.282;18.344;2022-08-19T05:15:55;21.50;99.90
14283;DHT22;7225;59.282;18.344;2022-08-19T05:18:24;21.50;99.90
14283;DHT22;7225;59.282;18.344;2022-08-19T05:21:14;21.60;99.90
14283;DHT22;7225;59.282;18.344;2022-08-19T05:24:02;21.50;99.90
14283;DHT22;7225;59.282;18.344;2022-08-19T05:26:31;21.50;99.90
14283;DHT22;7225;59.282;18.344;2022-08-19T05:29:00;21.60;99.90
14283;DHT22;7225;59.282;18.344;2022-08-19T05:31:29;21.70;99.90
14283;DHT22;7225;59.282;18.344;2022-08-19T05:33:59;21.70;99.90
14283;DHT22;7225;59.282;18.344;2022-08-19T05:36:35;21.70;99.90
14283;DHT22;7225;59.282;18.344;2022-08-19T05:39:04;21.70;99.90
14283;DHT22;7225;59.282;18.344;2022-08-19T05:41:32;21.70;99.90
14283;DHT22;7225;59.282;18.344;2022-08-19T05:44:03;21.70;99.90
14283;DHT22;7225;59.282;18.344;2022-08-19T05:46:33;21.80;99.90
14283;DHT22;7225;59.282;18.344;2022-08-19T05:49:04;21.80;99.90
14283;DHT22;7225;59.282;18.344;2022-08-19T05:51:35;21.80;99.90
14283;DHT22;7225;59.282;18.344;2022-08-19T05:54:06;21.80;99.90
14283;DHT22;7225;59.282;18.344;2022-08-19T05:56:35;21.80;99.90
14283;DHT22;7225;59.282;18.344;2022-08-19T05:59:08;21.80;99.90
14283;DHT22;7225;59.282;18.344;2022-08-19T06:01:40;21.90;99.90
14283;DHT22;7225;59.282;18.344;2022-08-19T06:04:09;21.90;99.90
14283;DHT22;7225;59.282;18.344;2022-08-19T06:06:39;21.90;99.90
14283;DHT22;7225;59.282;18.344;2022-08-19T06:09:08;22.00;99.90
14283;DHT22;7225;59.282;18.344;2022-08-19T06:11:44;22.00;99.90
14283;DHT22;7225;59.282;18.344;2022-08-19T06:14:17;22.00;99.90
14283;DHT22;7225;59.282;18.344;2022-08-19T06:19:19;22.10;99.90
14283;DHT22;7225;59.282;18.344;2022-08-19T06:21:50;22.20;99.90
14283;DHT22;7225;59.282;18.344;2022-08-19T06:24:22;22.20;99.90
14283;DHT22;7225;59.282;18.344;2022-08-19T06:26:53;22.30;99.90
14283;DHT22;7225;59.282;18.344;2022-08-19T06:29:30;22.30;99.90
14283;DHT22;7225;59.282;18.344;2022-08-19T06:32:00;22.40;99.90
14283;DHT22;7225;59.282;18.344;2022-08-19T06:34:32;22.40;99.90
14283;DHT22;7225;59.282;18.344;2022-08-19T06:37:02;22.40;99.90
14283;DHT22;7225;59.282;18.344;2022-08-19T06:39:34;22.50;99.90
14283;DHT22;7225;59.282;18.344;2022-08-19T06:42:04;22.50;99.90
14283;DHT22;7225;59.282;18.344;2022-08-19T06:44:38;22.50;99.90
14283;DHT22;7225;59.282;18.344;2022-08-19T06:47:13;22.60;99.90
14283;DHT22;7225;59.282;18.344;2022-08-19T06:49:56;22.60;99.90
14283;DHT22;7225;59.282;18.344;2022-08-19T06:52:34;22.70;99.90
14283;DHT22;7225;59.282;18.344;2022-08-19T06:55:04;22.80;99.90
14283;DHT22;7225;59.282;18.344;2022-08-19T06:57:34;22.90;99.90
14283;DHT22;7225;59.282;18.344;2022-08-19T07:00:06;23.00;99.90
14283;DHT22;7225;59.282;18.344;2022-08-19T07:02:41;23.10;99.90
14283;DHT22;7225;59.282;18.344;2022-08-19T07:05:22;23.40;99.90
14283;DHT22;7225;59.282;18.344;2022-08-19T07:07:50;23.50;99.90
14283;DHT22;7225;59.282;18.344;2022-08-19T07:10:21;23.70;99.90
14283;DHT22;7225;59.282;18.344;2022-08-19T07:12:52;23.80;99.90
14283;DHT22;7225;59.282;18.344;2022-08-19T07:15:20;23.80;99.90
14283;DHT22;7225;59.282;18.344;2022-08-19T07:17:49;23.80;99.90
14283;DHT22;7225;59.282;18.344;2022-08-19T07:20:19;24.00;99.90
14283;DHT22;7225;59.282;18.344;2022-08-19T07:22:48;24.00;99.90
14283;DHT22;7225;59.282;18.344;2022-08-19T07:25:18;23.90;99.90
14283;DHT22;7225;59.282;18.344;2022-08-19T07:28:00;23.80;99.90
14283;DHT22;7225;59.282;18.344;2022-08-19T07:30:29;23.70;99.90
14283;DHT22;7225;59.282;18.344;2022-08-19T07:32:58;23.60;99.90
14283;DHT22;7225;59.282;18.344;2022-08-19T07:35:30;23.50;99.90
14283;DHT22;7225;59.282;18.344;2022-08-19T07:38:00;23.50;99.90
14283;DHT22;7225;59.282;18.344;2022-08-19T07:40:30;23.50;99.90
14283;DHT22;7225;59.282;18.344;2022-08-19T07:42:59;23.50;99.90
14283;DHT22;7225;59.282;18.344;2022-08-19T07:45:27;23.60;99.90
14283;DHT22;7225;59.282;18.344;2022-08-19T07:47:57;23.60;99.90
14283;DHT22;7225;59.282;18.344;2022-08-19T07:50:25;23.60;99.90
14283;DHT22;7225;59.282;18.344;2022-08-19T07:52:54;23.70;99.90
14283;DHT22;7225;59.282;18.344;2022-08-19T07:55:25;23.80;99.90
14283;DHT22;7225;59.282;18.344;2022-08-19T07:58:17;23.90;99.90
14283;DHT22;7225;59.282;18.344;2022-08-19T08:00:50;24.10;99.90
14283;DHT22;7225;59.282;18.344;2022-08-19T08:03:20;24.10;99.90
14283;DHT22;7225;59.282;18.344;2022-08-19T08:05:48;24.10;99.90
14283;DHT22;7225;59.282;18.344;2022-08-19T08:08:34;24.20;99.90
14283;DHT22;7225;59.282;18.344;2022-08-19T08:11:21;24.20;99.90
14283;DHT22;7225;59.282;18.344;2022-08-19T08:13:51;24.30;99.90
14283;DHT22;7225;59.282;18.344;2022-08-19T08:16:29;24.20;99.90
14283;DHT22;7225;59.282;18.344;2022-08-19T08:19:03;24.20;99.90
14283;DHT22;7225;59.282;18.344;2022-08-19T08:21:46;24.30;99.90
14283;DHT22;7225;59.282;18.344;2022-08-19T08:24:15;24.30;99.90
14283;DHT22;7225;59.282;18.344;2022-08-19T08:26:43;24.30;99.90
14283;DHT22;7225;59.282;18.344;2022-08-19T08:29:19;24.30;99.90
14283;DHT22;7225;59.282;18.344;2022-08-19T08:31:47;24.40;99.90
14283;DHT22;7225;59.282;18.344;2022-08-19T08:34:26;24.40;99.90
14283;DHT22;7225;59.282;18.344;2022-08-19T08:36:54;24.50;99.90
14283;DHT22;7225;59.282;18.344;2022-08-19T08:39:24;24.60;99.90
14283;DHT22;7225;59.282;18.344;2022-08-19T08:47:13;25.10;99.90
14283;DHT22;7225;59.282;18.344;2022-08-19T08:50:04;25.20;99.90
14283;DHT22;7225;59.282;18.344;2022-08-19T08:52:37;25.30;99.90
14283;DHT22;7225;59.282;18.344;2022-08-19T08:55:17;25.30;99.90
14283;DHT22;7225;59.282;18.344;2022-08-19T09:00:41;25.60;99.90
14283;DHT22;7225;59.282;18.344;2022-08-19T09:03:14;25.60;99.90
14283;DHT22;7225;59.282;18.344;2022-08-19T09:06:00;25.60;99.90
14283;DHT22;7225;59.282;18.344;2022-08-19T09:11:22;25.80;99.90
14283;DHT22;7225;59.282;18.344;2022-08-19T09:14:42;25.80;99.90
14283;DHT22;7225;59.282;18.344;2022-08-19T09:17:17;26.00;99.90
14283;DHT22;7225;59.282;18.344;2022-08-19T09:19:54;26.00;99.90
14283;DHT22;7225;59.282;18.344;2022-08-19T09:22:22;26.00;99.90
14283;DHT22;7225;59.282;18.344;2022-08-19T09:24:54;26.10;99.90
14283;DHT22;7225;59.282;18.344;2022-08-19T09:27:23;26.30;99.90
14283;DHT22;7225;59.282;18.344;2022-08-19T09:30:17;26.30;99.90
14283;DHT22;7225;59.282;18.344;2022-08-19T09:32:48;26.30;99.90
14283;DHT22;7225;59.282;18.344;2022-08-19T09:35:24;26.30;99.90
14283;DHT22;7225;59.282;18.344;2022-08-19T09:37:57;26.30;99.90
14283;DHT22;7225;59.282;18.344;2022-08-19T09:40:27;26.30;99.90
14283;DHT22;7225;59.282;18.344;2022-08-19T09:42:57;26.30;99.90
14283;DHT22;7225;59.282;18.344;2022-08-19T09:45:38;26.40;99.90
14283;DHT22;7225;59.282;18.344;2022-08-19T09:48:06;26.60;99.90
14283;DHT22;7225;59.282;18.344;2022-08-19T09:50:36;26.70;99.90
14283;DHT22;7225;59.282;18.344;2022-08-19T09:53:22;26.80;99.90
14283;DHT22;7225;59.282;18.344;2022-08-19T09:55:57;26.90;99.90
14283;DHT22;7225;59.282;18.344;2022-08-19T09:58:26;27.00;99.90
14283;DHT22;7225;59.282;18.344;2022-08-19T10:00:57;27.40;99.90
14283;DHT22;7225;59.282;18.344;2022-08-19T10:03:28;27.70;99.90
14283;DHT22;7225;59.282;18.344;2022-08-19T10:05:59;27.40;99.90
14283;DHT22;7225;59.282;18.344;2022-08-19T10:08:34;27.30;99.90
14283;DHT22;7225;59.282;18.344;2022-08-19T10:11:05;27.60;99.90
14283;DHT22;7225;59.282;18.344;2022-08-19T10:13:55;27.70;99.90
14283;DHT22;7225;59.282;18.344;2022-08-19T10:16:24;28.00;99.90
14283;DHT22;7225;59.282;18.344;2022-08-19T10:18:58;27.90;99.90
14283;DHT22;7225;59.282;18.344;2022-08-19T10:21:31;27.60;99.90
14283;DHT22;7225;59.282;18.344;2022-08-19T10:24:03;27.70;99.90
14283;DHT22;7225;59.282;18.344;2022-08-19T10:26:37;27.70;99.90
14283;DHT22;7225;59.282;18.344;2022-08-19T10:29:06;27.60;99.90
14283;DHT22;7225;59.282;18.344;2022-08-19T10:31:36;27.50;99.90
14283;DHT22;7225;59.282;18.344;2022-08-19T10:34:28;27.70;99.90
14283;DHT22;7225;59.282;18.344;2022-08-19T10:36:58;27.60;99.90
14283;DHT22;7225;59.282;18.344;2022-08-19T10:39:30;27.70;99.90
14283;DHT22;7225;59.282;18.344;2022-08-19T10:42:09;27.70;99.90
14283;DHT22;7225;59.282;18.344;2022-08-19T10:44:41;27.90;99.90
14283;DHT22;7225;59.282;18.344;2022-08-19T10:47:09;28.10;99.90
14283;DHT22;7225;59.282;18.344;2022-08-19T10:49:53;28.30;99.90
14283;DHT22;7225;59.282;18.344;2022-08-19T10:52:42;28.40;99.90
14283;DHT22;7225;59.282;18.344;2022-08-19T10:55:22;28.60;99.90
14283;DHT22;7225;59.282;18.344;2022-08-19T10:58:18;28.80;99.90
14283;DHT22;7225;59.282;18.344;2022-08-19T11:00:55;28.90;99.90
14283;DHT22;7225;59.282;18.344;2022-08-19T11:03:26;28.90;99.90
14283;DHT22;7225;59.282;18.344;2022-08-19T11:06:05;29.00;99.90
14283;DHT22;7225;59.282;18.344;2022-08-19T11:08:35;29.00;99.90
14283;DHT22;7225;59.282;18.344;2022-08-19T11:11:06;29.20;99.90
14283;DHT22;7225;59.282;18.344;2022-08-19T11:13:37;29.30;99.90
14283;DHT22;7225;59.282;18.344;2022-08-19T11:16:10;29.30;99.90
14283;DHT22;7225;59.282;18.344;2022-08-19T11:18:47;29.30;99.90
14283;DHT22;7225;59.282;18.344;2022-08-19T11:21:20;29.20;99.90
14283;DHT22;7225;59.282;18.344;2022-08-19T11:23:52;29.20;99.90
14283;DHT22;7225;59.282;18.344;2022-08-19T11:26:21;29.40;99.90
14283;DHT22;7225;59.282;18.344;2022-08-19T11:28:52;29.50;99.90
14283;DHT22;7225;59.282;18.344;2022-08-19T11:31:26;29.50;99.90
14283;DHT22;7225;59.282;18.344;2022-08-19T11:33:59;29.70;99.90
14283;DHT22;7225;59.282;18.344;2022-08-19T11:36:30;29.60;99.90
14283;DHT22;7225;59.282;18.344;2022-08-19T11:39:02;29.80;99.90
14283;DHT22;7225;59.282;18.344;2022-08-19T11:41:32;29.90;99.90
14283;DHT22;7225;59.282;18.344;2022-08-19T11:44:00;30.00;99.90
14283;DHT22;7225;59.282;18.344;2022-08-19T11:46:28;30.00;99.90
14283;DHT22;7225;59.282;18.344;2022-08-19T11:48:57;30.00;99.90
14283;DHT22;7225;59.282;18.344;2022-08-19T11:51:28;30.10;99.90
14283;DHT22;7225;59.282;18.344;2022-08-19T11:53:58;29.90;99.90
14283;DHT22;7225;59.282;18.344;2022-08-19T11:56:27;29.70;99.90
14283;DHT22;7225;59.282;18.344;2022-08-19T11:58:58;29.60;99.90
14283;DHT22;7225;59.282;18.344;2022-08-19T12:01:27;29.60;99.90
14283;DHT22;7225;59.282;18.344;2022-08-19T12:03:55;29.40;99.90
14283;DHT22;7225;59.282;18.344;2022-08-19T12:06:29;29.20;99.90
14283;DHT22;7225;59.282;18.344;2022-08-19T12:09:00;29.30;99.90
14283;DHT22;7225;59.282;18.344;2022-08-19T12:11:29;29.50;99.90
14283;DHT22;7225;59.282;18.344;2022-08-19T12:14:01;29.50;99.90
14283;DHT22;7225;59.282;18.344;2022-08-19T12:16:31;29.60;99.90
14283;DHT22;7225;59.282;18.344;2022-08-19T12:19:00;29.80;99.90
14283;DHT22;7225;59.282;18.344;2022-08-19T12:21:34;30.00;99.90
14283;DHT22;7225;59.282;18.344;2022-08-19T12:24:05;30.10;99.90
14283;DHT22;7225;59.282;18.344;2022-08-19T12:26:34;30.10;99.90
14283;DHT22;7225;59.282;18.344;2022-08-19T12:29:21;30.00;99.90
14283;DHT22;7225;59.282;18.344;2022-08-19T12:31:51;30.10;99.90
14283;DHT22;7225;59.282;18.344;2022-08-19T12:34:20;30.40;99.90
14283;DHT22;7225;59.282;18.344;2022-08-19T12:36:49;30.50;99.90
14283;DHT22;7225;59.282;18.344;2022-08-19T12:39:17;30.70;99.90
14283;DHT22;7225;59.282;18.344;2022-08-19T12:41:46;30.80;99.90
14283;DHT22;7225;59.282;18.344;2022-08-19T12:44:22;30.80;99.90
14283;DHT22;7225;59.282;18.344;2022-08-19T12:46:58;30.90;99.90
14283;DHT22;7225;59.282;18.344;2022-08-19T12:49:28;30.80;99.90
14283;DHT22;7225;59.282;18.344;2022-08-19T12:52:17;30.90;99.90
14283;DHT22;7225;59.282;18.344;2022-08-19T12:54:53;30.80;99.90
14283;DHT22;7225;59.282;18.344;2022-08-19T12:57:25;30.90;99.90
14283;DHT22;7225;59.282;18.344;2022-08-19T13:00:03;31.00;99.90
14283;DHT22;7225;59.282;18.344;2022-08-19T13:02:33;31.00;99.90
14283;DHT22;7225;59.282;18.344;2022-08-19T13:05:07;31.10;99.90
14283;DHT22;7225;59.282;18.344;2022-08-19T13:07:39;31.00;99.90
14283;DHT22;7225;59.282;18.344;2022-08-19T13:10:11;31.10;99.90
14283;DHT22;7225;59.282;18.344;2022-08-19T13:12:42;30.90;99.90
14283;DHT22;7225;59.282;18.344;2022-08-19T13:15:11;30.30;99.90
14283;DHT22;7225;59.282;18.344;2022-08-19T13:17:42;30.20;99.90
14283;DHT22;7225;59.282;18.344;2022-08-19T13:20:10;30.00;99.90
14283;DHT22;7225;59.282;18.344;2022-08-19T13:22:38;29.80;99.90
14283;DHT22;7225;59.282;18.344;2022-08-19T13:25:08;29.60;99.90
14283;DHT22;7225;59.282;18.344;2022-08-19T13:27:37;29.60;99.90
14283;DHT22;7225;59.282;18.344;2022-08-19T13:30:08;29.70;99.90
14283;DHT22;7225;59.282;18.344;2022-08-19T13:32:58;29.70;99.90
14283;DHT22;7225;59.282;18.344;2022-08-19T13:35:40;29.50;99.90
14283;DHT22;7225;59.282;18.344;2022-08-19T13:38:10;29.30;99.90
14283;DHT22;7225;59.282;18.344;2022-08-19T13:40:40;29.10;99.90
14283;DHT22;7225;59.282;18.344;2022-08-19T13:43:09;29.10;99.90
14283;DHT22;7225;59.282;18.344;2022-08-19T13:45:51;28.90;99.90
14283;DHT22;7225;59.282;18.344;2022-08-19T13:48:22;28.90;99.90
14283;DHT22;7225;59.282;18.344;2022-08-19T13:50:51;28.90;99.90
14283;DHT22;7225;59.282;18.344;2022-08-19T13:53:19;28.80;99.90
14283;DHT22;7225;59.282;18.344;2022-08-19T13:55:47;28.70;99.90
14283;DHT22;7225;59.282;18.344;2022-08-19T13:58:17;28.70;99.90
14283;DHT22;7225;59.282;18.344;2022-08-19T14:00:46;28.80;99.90
14283;DHT22;7225;59.282;18.344;2022-08-19T14:03:14;28.60;99.90
14283;DHT22;7225;59.282;18.344;2022-08-19T14:05:44;28.60;99.90
14283;DHT22;7225;59.282;18.344;2022-08-19T14:08:12;28.70;99.90
14283;DHT22;7225;59.282;18.344;2022-08-19T14:10:43;28.40;99.90
14283;DHT22;7225;59.282;18.344;2022-08-19T14:13:16;28.20;99.90
14283;DHT22;7225;59.282;18.344;2022-08-19T14:15:45;28.10;99.90
14283;DHT22;7225;59.282;18.344;2022-08-19T14:18:15;27.90;99.90
14283;DHT22;7225;59.282;18.344;2022-08-19T14:20:44;27.70;99.90
14283;DHT22;7225;59.282;18.344;2022-08-19T14:23:12;27.70;99.90
14283;DHT22;7225;59.282;18.344;2022-08-19T14:25:42;27.70;99.90
14283;DHT22;7225;59.282;18.344;2022-08-19T14:28:11;27.60;99.90
14283;DHT22;7225;59.282;18.344;2022-08-19T14:30:40;27.60;99.90
14283;DHT22;7225;59.282;18.344;2022-08-19T14:33:08;27.50;99.90
14283;DHT22;7225;59.282;18.344;2022-08-19T14:35:37;27.50;99.90
14283;DHT22;7225;59.282;18.344;2022-08-19T14:38:06;27.60;99.90
14283;DHT22;7225;59.282;18.344;2022-08-19T14:40:43;27.70;99.90
14283;DHT22;7225;59.282;18.344;2022-08-19T14:43:12;27.60;99.90
14283;DHT22;7225;59.282;18.344;2022-08-19T14:45:43;27.60;99.90
14283;DHT22;7225;59.282;18.344;2022-08-19T14:48:12;27.50;99.90
14283;DHT22;7225;59.282;18.344;2022-08-19T14:50:48;27.50;99.90
14283;DHT22;7225;59.282;18.344;2022-08-19T14:53:16;27.40;99.90
14283;DHT22;7225;59.282;18.344;2022-08-19T14:55:46;27.40;99.90
14283;DHT22;7225;59.282;18.344;2022-08-19T14:58:13;27.40;99.90
14283;DHT22;7225;59.282;18.344;2022-08-19T15:00:58;27.30;99.90
14283;DHT22;7225;59.282;18.344;2022-08-19T15:03:27;27.30;99.90
14283;DHT22;7225;59.282;18.344;2022-08-19T15:05:55;27.40;99.90
14283;DHT22;7225;59.282;18.344;2022-08-19T15:08:27;27.40;99.90
14283;DHT22;7225;59.282;18.344;2022-08-19T15:10:56;27.40;99.90
14283;DHT22;7225;59.282;18.344;2022-08-19T15:13:24;27.40;99.90
14283;DHT22;7225;59.282;18.344;2022-08-19T15:15:53;27.50;99.90
14283;DHT22;7225;59.282;18.344;2022-08-19T15:18:21;27.70;99.90
14283;DHT22;7225;59.282;18.344;2022-08-19T15:20:50;27.90;99.90
14283;DHT22;7225;59.282;18.344;2022-08-19T15:23:19;27.90;99.90
14283;DHT22;7225;59.282;18.344;2022-08-19T15:25:48;28.00;99.90
14283;DHT22;7225;59.282;18.344;2022-08-19T15:28:21;28.10;99.90
14283;DHT22;7225;59.282;18.344;2022-08-19T15:30:50;28.20;99.90
14283;DHT22;7225;59.282;18.344;2022-08-19T15:33:18;28.30;99.90
14283;DHT22;7225;59.282;18.344;2022-08-19T15:35:48;28.20;99.90
14283;DHT22;7225;59.282;18.344;2022-08-19T15:38:19;28.30;99.90
14283;DHT22;7225;59.282;18.344;2022-08-19T15:40:54;28.30;99.90
14283;DHT22;7225;59.282;18.344;2022-08-19T15:43:42;28.20;99.90
14283;DHT22;7225;59.282;18.344;2022-08-19T15:46:11;28.10;99.90
14283;DHT22;7225;59.282;18.344;2022-08-19T15:48:45;27.90;99.90
14283;DHT22;7225;59.282;18.344;2022-08-19T15:51:24;27.70;99.90
14283;DHT22;7225;59.282;18.344;2022-08-19T15:53:54;27.50;99.90
14283;DHT22;7225;59.282;18.344;2022-08-19T15:56:23;27.40;99.90
14283;DHT22;7225;59.282;18.344;2022-08-19T15:58:55;27.40;99.90
14283;DHT22;7225;59.282;18.344;2022-08-19T16:01:42;27.20;99.90
14283;DHT22;7225;59.282;18.344;2022-08-19T16:04:31;27.20;99.90
14283;DHT22;7225;59.282;18.344;2022-08-19T16:07:18;27.10;99.90
14283;DHT22;7225;59.282;18.344;2022-08-19T16:09:50;27.00;99.90
14283;DHT22;7225;59.282;18.344;2022-08-19T16:12:20;26.90;99.90
14283;DHT22;7225;59.282;18.344;2022-08-19T16:14:48;26.80;99.90